createdAt,value
2019-04-27T00:00:46.989Z,99730.24
2019-04-27T00:03:26.301Z,99726.91
2019-04-27T00:05:59.457Z,99733.16
2019-04-27T00:08:38.608Z,99727.51
2019-04-27T00:11:23.097Z,99730.91
2019-04-27T00:13:53.596Z,99733.87
2019-04-27T00:16:47.159Z,99721.98
2019-04-27T00:19:27.389Z,99726.04
2019-04-27T00:22:00.264Z,99726.78
2019-04-27T00:24:28.985Z,99724.41
2019-04-27T00:26:57.703Z,99723.16
2019-04-27T00:29:27.735Z,99726.50
2019-04-27T00:31:56.469Z,99736.42
2019-04-27T00:34:25.197Z,99740.00
2019-04-27T00:36:58.307Z,99742.85
2019-04-27T00:39:43.582Z,99747.48
2019-04-27T00:42:13.522Z,99745.81
2019-04-27T00:44:43.027Z,99746.90
2019-04-27T00:47:13.706Z,99748.99
2019-04-27T00:49:44.225Z,99738.89
2019-04-27T00:52:13.921Z,99739.98
2019-04-27T00:54:44.113Z,99737.56
2019-04-27T00:57:24.521Z,99734.73
2019-04-27T00:59:54.854Z,99741.13
2019-04-27T01:02:30.998Z,99742.02
2019-04-27T01:05:00.120Z,99733.80
2019-04-27T01:07:28.836Z,99739.14
2019-04-27T01:09:57.722Z,99745.80
2019-04-27T01:12:26.441Z,99749.30
2019-04-27T01:14:55.159Z,99746.22
2019-04-27T01:17:24.789Z,99738.45
2019-04-27T01:19:53.531Z,99742.39
2019-04-27T01:22:22.272Z,99732.74
2019-04-27T01:24:51.024Z,99733.85
2019-04-27T01:27:24.004Z,99735.94
2019-04-27T01:29:54.592Z,99738.88
2019-04-27T01:32:23.312Z,99739.26
2019-04-27T01:34:52.028Z,99728.66
2019-04-27T01:37:21.174Z,99728.99
2019-04-27T01:39:50.462Z,99722.63
2019-04-27T01:42:19.851Z,99724.22
2019-04-27T01:44:50.820Z,99720.65
2019-04-27T01:47:19.094Z,99719.08
2019-04-27T01:49:49.427Z,99717.70
2019-04-27T01:52:19.379Z,99714.09
2019-04-27T01:54:49.534Z,99709.69
2019-04-27T01:57:19.396Z,99708.69
2019-04-27T01:59:48.889Z,99708.20
2019-04-27T02:02:22.839Z,99706.47
2019-04-27T02:04:53.179Z,99706.17
2019-04-27T02:07:21.935Z,99705.94
2019-04-27T02:09:50.666Z,99706.69
2019-04-27T02:12:19.423Z,99702.97
2019-04-27T02:14:49.070Z,99711.25
2019-04-27T02:17:18.708Z,99699.42
2019-04-27T02:19:49.263Z,99700.95
2019-04-27T02:22:18.672Z,99704.55
2019-04-27T02:24:49.193Z,99706.51
2019-04-27T02:27:19.760Z,99708.02
2019-04-27T02:30:05.323Z,99706.05
2019-04-27T02:32:51.973Z,99704.61
2019-04-27T02:35:20.698Z,99705.25
2019-04-27T02:37:50.206Z,99705.88
2019-04-27T02:40:42.662Z,99701.52
2019-04-27T02:43:11.600Z,99695.19
2019-04-27T02:45:40.443Z,99698.21
2019-04-27T02:48:09.903Z,99693.55
2019-04-27T02:50:39.931Z,99690.81
2019-04-27T02:53:11.098Z,99694.06
2019-04-27T02:55:39.921Z,99692.32
2019-04-27T02:58:09.973Z,99685.78
2019-04-27T03:00:39.955Z,99685.95
2019-04-27T03:03:10.752Z,99685.42
2019-04-27T03:05:40.118Z,99677.67
2019-04-27T03:08:10.185Z,99682.70
2019-04-27T03:10:40.616Z,99682.86
2019-04-27T03:13:13.621Z,99679.26
2019-04-27T03:16:11.363Z,99688.70
2019-04-27T03:18:40.557Z,99692.99
2019-04-27T03:21:13.094Z,99694.72
2019-04-27T03:23:41.462Z,99688.48
2019-04-27T03:26:14.495Z,99681.59
2019-04-27T03:28:44.205Z,99677.66
2019-04-27T03:31:14.058Z,99674.62
2019-04-27T03:33:43.496Z,99675.45
2019-04-27T03:36:13.217Z,99675.27
2019-04-27T03:38:42.412Z,99667.64
2019-04-27T03:41:11.244Z,99670.47
2019-04-27T03:43:41.429Z,99668.52
2019-04-27T03:46:10.565Z,99670.88
2019-04-27T03:48:40.668Z,99667.78
2019-04-27T03:51:19.988Z,99660.98
2019-04-27T03:54:01.938Z,99670.21
2019-04-27T03:56:36.034Z,99670.83
2019-04-27T03:59:10.136Z,99675.98
2019-04-27T04:01:39.825Z,99676.23
2019-04-27T04:04:10.345Z,99680.24
2019-04-27T04:06:40.055Z,99680.56
2019-04-27T04:09:12.941Z,99688.42
2019-04-27T04:11:46.165Z,99689.63
2019-04-27T04:14:16.474Z,99691.58
2019-04-27T04:16:46.835Z,99688.86
2019-04-27T04:19:15.570Z,99688.52
2019-04-27T04:21:44.297Z,99685.12
2019-04-27T04:24:13.499Z,99691.67
2019-04-27T04:26:42.246Z,99692.45
2019-04-27T04:29:11.012Z,99689.10
2019-04-27T04:31:46.135Z,99682.10
2019-04-27T04:34:14.849Z,99688.11
2019-04-27T04:36:43.573Z,99681.97
2019-04-27T04:39:12.874Z,99686.88
2019-04-27T04:42:01.612Z,99689.09
2019-04-27T04:44:47.042Z,99684.76
2019-04-27T04:47:19.476Z,99684.42
2019-04-27T04:49:54.602Z,99686.80
2019-04-27T04:52:19.746Z,99678.12
2019-04-27T04:54:49.602Z,99680.02
2019-04-27T04:57:21.937Z,99680.29
2019-04-27T04:59:51.493Z,99685.22
2019-04-27T05:02:20.431Z,99686.73
2019-04-27T05:04:49.282Z,99687.05
2019-04-27T05:07:19.414Z,99693.23
2019-04-27T05:09:48.642Z,99693.95
2019-04-27T05:12:19.007Z,99699.80
2019-04-27T05:14:48.965Z,99688.56
2019-04-27T05:17:19.474Z,99690.02
2019-04-27T05:19:49.178Z,99683.83
2019-04-27T05:22:19.514Z,99686.17
2019-04-27T05:24:49.916Z,99690.08
2019-04-27T05:27:19.105Z,99679.17
2019-04-27T05:29:48.826Z,99685.47
2019-04-27T05:32:18.879Z,99678.08
2019-04-27T05:34:49.537Z,99681.37
2019-04-27T05:37:27.703Z,99687.08
2019-04-27T05:39:48.966Z,99679.91
2019-04-27T05:42:20.010Z,99679.48
2019-04-27T05:45:03.568Z,99677.97
2019-04-27T05:47:36.831Z,99674.47
2019-04-27T05:50:09.058Z,99680.01
2019-04-27T05:52:38.670Z,99678.52
2019-04-27T05:55:10.408Z,99679.35
2019-04-27T05:57:39.254Z,99681.67
2019-04-27T06:00:09.336Z,99681.47
2019-04-27T06:02:39.729Z,99681.14
2019-04-27T06:05:08.933Z,99685.31
2019-04-27T06:07:39.507Z,99687.73
2019-04-27T06:10:09.548Z,99685.41
2019-04-27T06:12:39.604Z,99676.52
2019-04-27T06:15:09.755Z,99677.48
2019-04-27T06:17:38.804Z,99671.89
2019-04-27T06:20:09.108Z,99674.42
2019-04-27T06:22:38.998Z,99668.49
2019-04-27T06:25:11.340Z,99663.22
2019-04-27T06:27:39.691Z,99662.83
2019-04-27T06:30:09.407Z,99661.17
2019-04-27T06:32:39.575Z,99658.66
2019-04-27T06:35:09.861Z,99664.50
2019-04-27T06:37:39.834Z,99654.47
2019-04-27T06:40:09.797Z,99656.31
2019-04-27T06:42:39.809Z,99653.13
2019-04-27T06:45:09.928Z,99653.15
2019-04-27T06:47:39.661Z,99652.75
2019-04-27T06:50:09.560Z,99653.06
2019-04-27T06:52:39.015Z,99646.30
2019-04-27T06:55:11.102Z,99643.22
2019-04-27T06:57:41.172Z,99645.80
2019-04-27T07:00:10.474Z,99639.89
2019-04-27T07:02:39.342Z,99640.96
2019-04-27T07:05:09.087Z,99637.14
2019-04-27T07:07:39.514Z,99638.23
2019-04-27T07:10:08.694Z,99633.48
2019-04-27T07:12:40.709Z,99635.75
2019-04-27T07:15:08.987Z,99638.06
2019-04-27T07:17:38.913Z,99632.87
2019-04-27T07:20:09.073Z,99637.05
2019-04-27T07:22:39.698Z,99626.63
2019-04-27T07:25:09.100Z,99628.53
2019-04-27T07:27:39.472Z,99623.87
2019-04-27T07:30:11.734Z,99620.28
2019-04-27T07:32:39.705Z,99614.97
2019-04-27T07:35:09.841Z,99611.73
2019-04-27T07:37:39.365Z,99602.56
2019-04-27T07:40:09.202Z,99609.45
2019-04-27T07:42:40.816Z,99608.11
2019-04-27T07:45:11.311Z,99609.27
2019-04-27T07:47:41.801Z,99602.39
2019-04-27T07:50:10.622Z,99609.87
2019-04-27T07:52:40.530Z,99603.33
2019-04-27T07:55:09.599Z,99602.16
2019-04-27T07:57:39.851Z,99602.21
2019-04-27T08:00:09.954Z,99596.64
2019-04-27T08:02:39.078Z,99597.59
2019-04-27T08:07:36.464Z,99586.17
2019-04-27T08:10:05.795Z,99584.84
2019-04-27T08:12:34.528Z,99587.91
2019-04-27T08:15:03.353Z,99584.08
2019-04-27T08:17:32.076Z,99578.71
2019-04-27T08:20:00.802Z,99577.34
2019-04-27T08:22:29.713Z,99576.25
2019-04-27T08:24:59.516Z,99570.87
2019-04-27T08:27:35.903Z,99575.02
2019-04-27T08:30:13.942Z,99574.61
2019-04-27T08:32:49.541Z,99569.99
2019-04-27T08:35:19.496Z,99563.88
2019-04-27T08:37:49.567Z,99562.06
2019-04-27T08:40:19.422Z,99561.54
2019-04-27T08:42:50.914Z,99561.59
2019-04-27T08:45:19.298Z,99555.00
2019-04-27T08:47:49.724Z,99548.23
2019-04-27T08:50:19.240Z,99543.78
2019-04-27T08:52:50.224Z,99541.42
2019-04-27T08:55:19.575Z,99535.17
2019-04-27T08:57:49.015Z,99530.02
2019-04-27T09:00:19.428Z,99527.71
2019-04-27T09:02:50.293Z,99530.75
2019-04-27T09:05:21.170Z,99525.16
2019-04-27T09:07:59.505Z,99527.06
2019-04-27T09:10:41.582Z,99520.55
2019-04-27T09:13:19.506Z,99526.78
2019-04-27T09:15:52.805Z,99525.53
2019-04-27T09:18:23.348Z,99523.63
2019-04-27T09:20:56.758Z,99525.31
2019-04-27T09:23:25.679Z,99521.89
2019-04-27T09:25:54.788Z,99518.76
2019-04-27T09:28:23.527Z,99518.50
2019-04-27T09:30:52.439Z,99508.55
2019-04-27T09:33:22.367Z,99498.84
2019-04-27T09:35:51.267Z,99494.87
2019-04-27T09:38:19.984Z,99491.18
2019-04-27T09:40:48.847Z,99489.96
2019-04-27T09:43:17.563Z,99501.14
2019-04-27T09:45:47.197Z,99496.09
2019-04-27T09:48:17.603Z,99486.86
2019-04-27T09:50:48.401Z,99486.19
2019-04-27T09:53:17.175Z,99469.25
2019-04-27T09:55:48.580Z,99469.25
2019-04-27T09:58:18.571Z,99461.09
2019-04-27T10:00:49.139Z,99454.83
2019-04-27T10:03:17.857Z,99453.83
2019-04-27T10:05:46.602Z,99450.94
2019-04-27T10:08:16.985Z,99443.27
2019-04-27T10:10:46.003Z,99446.08
2019-04-27T10:13:17.798Z,99439.02
2019-04-27T10:15:46.659Z,99440.89
2019-04-27T10:18:16.309Z,99432.98
2019-04-27T10:20:56.923Z,99432.98
2019-04-27T10:23:15.884Z,99421.52
2019-04-27T10:25:45.787Z,99426.30
2019-04-27T10:28:14.678Z,99416.91
2019-04-27T10:30:43.592Z,99412.37
2019-04-27T10:33:12.315Z,99411.20
2019-04-27T10:35:41.036Z,99408.25
2019-04-27T10:38:10.025Z,99409.94
2019-04-27T10:40:38.882Z,99406.42
2019-04-27T10:43:07.592Z,99399.56
2019-04-27T10:45:37.839Z,99395.08
2019-04-27T10:48:06.778Z,99399.86
2019-04-27T10:50:36.593Z,99394.58
2019-04-27T10:53:06.969Z,99388.06
2019-04-27T10:55:36.334Z,99380.01
2019-04-27T10:58:05.438Z,99379.02
2019-04-27T11:00:45.078Z,99372.19
2019-04-27T11:03:16.647Z,99375.62
2019-04-27T11:05:47.026Z,99374.52
2019-04-27T11:08:16.739Z,99375.00
2019-04-27T11:10:46.198Z,99371.45
2019-04-27T11:13:16.522Z,99367.23
2019-04-27T11:15:46.187Z,99361.51
2019-04-27T11:18:16.719Z,99357.20
2019-04-27T11:20:46.724Z,99357.21
2019-04-27T11:23:16.389Z,99353.52
2019-04-27T11:25:46.813Z,99351.05
2019-04-27T11:28:15.808Z,99347.33
2019-04-27T11:30:44.686Z,99342.80
2019-04-27T11:33:13.412Z,99333.72
2019-04-27T11:35:49.976Z,99338.06
2019-04-27T11:38:18.695Z,99338.33
2019-04-27T11:40:47.443Z,99334.47
2019-04-27T11:43:16.226Z,99326.09
2019-04-27T11:45:45.787Z,99324.04
2019-04-27T11:48:16.146Z,99321.09
2019-04-27T11:50:45.890Z,99318.09
2019-04-27T11:53:22.580Z,99315.22
2019-04-27T11:55:46.343Z,99317.67
2019-04-27T11:58:16.485Z,99318.42
2019-04-27T12:00:45.337Z,99310.07
2019-04-27T12:03:14.065Z,99303.63
2019-04-27T12:05:42.839Z,99295.62
2019-04-27T12:08:11.572Z,99284.09
2019-04-27T12:10:40.294Z,99274.05
2019-04-27T12:13:09.061Z,99272.04
2019-04-27T12:15:38.164Z,99265.10
2019-04-27T12:18:09.005Z,99266.09
2019-04-27T12:20:38.283Z,99263.36
2019-04-27T12:23:07.020Z,99250.88
2019-04-27T12:25:37.410Z,99247.53
2019-04-27T12:28:25.614Z,99244.84
2019-04-27T12:30:56.123Z,99238.06
2019-04-27T12:33:25.574Z,99235.83
2019-04-27T12:35:56.882Z,99234.22
2019-04-27T12:38:26.341Z,99228.51
2019-04-27T12:40:56.596Z,99228.13
2019-04-27T12:43:25.581Z,99214.27
2019-04-27T12:45:55.917Z,99210.69
2019-04-27T12:48:27.696Z,99207.78
2019-04-27T12:50:56.550Z,99200.31
2019-04-27T12:53:32.890Z,99201.95
2019-04-27T12:56:12.039Z,99203.88
2019-04-27T12:58:45.058Z,99194.20
2019-04-27T13:01:15.782Z,99192.03
2019-04-27T13:03:46.235Z,99191.75
2019-04-27T13:06:15.099Z,99187.30
2019-04-27T13:08:45.699Z,99172.75
2019-04-27T13:11:16.109Z,99174.36
2019-04-27T13:13:44.752Z,99174.44
2019-04-27T13:16:13.471Z,99162.69
2019-04-27T13:18:44.490Z,99161.92
2019-04-27T13:21:13.214Z,99148.35
2019-04-27T13:23:41.937Z,99147.92
2019-04-27T13:26:10.920Z,99146.82
2019-04-27T13:28:39.651Z,99137.46
2019-04-27T13:31:08.361Z,99141.20
2019-04-27T13:33:37.252Z,99140.40
2019-04-27T13:36:08.604Z,99128.08
2019-04-27T13:38:37.326Z,99126.77
2019-04-27T13:41:07.795Z,99128.88
2019-04-27T13:43:39.993Z,99130.89
2019-04-27T13:46:15.743Z,99125.63
2019-04-27T13:49:04.580Z,99123.84
2019-04-27T13:51:47.831Z,99130.25
2019-04-27T13:54:23.684Z,99125.70
2019-04-27T13:56:47.674Z,99119.95
2019-04-27T13:59:17.310Z,99113.91
2019-04-27T14:01:46.056Z,99117.32
2019-04-27T14:04:14.761Z,99115.28
2019-04-27T14:06:44.342Z,99110.66
2019-04-27T14:09:13.067Z,99103.48
2019-04-27T14:11:41.797Z,99107.13
2019-04-27T14:14:10.767Z,99099.70
2019-04-27T14:16:39.488Z,99096.09
2019-04-27T14:19:08.619Z,99091.47
2019-04-27T14:21:38.800Z,99089.17
2019-04-27T14:24:07.620Z,99083.69
2019-04-27T14:26:36.346Z,99086.02
2019-04-27T14:29:05.225Z,99086.63
2019-04-27T14:31:33.951Z,99083.56
2019-04-27T14:34:02.676Z,99088.77
2019-04-27T14:36:31.512Z,99080.27
2019-04-27T14:39:00.325Z,99085.55
2019-04-27T14:41:29.090Z,99082.47
2019-04-27T14:44:07.475Z,99088.88
2019-04-27T14:46:30.469Z,99093.20
2019-04-27T14:48:58.937Z,99094.39
2019-04-27T14:51:28.585Z,99097.26
2019-04-27T14:53:58.872Z,99097.59
2019-04-27T14:56:28.259Z,99089.28
2019-04-27T14:58:58.656Z,99085.32
2019-04-27T15:01:29.048Z,99090.10
2019-04-27T15:03:57.858Z,99080.96
2019-04-27T15:06:26.636Z,99077.92
2019-04-27T15:08:55.780Z,99084.38
2019-04-27T15:11:24.653Z,99081.23
2019-04-27T15:13:56.790Z,99078.60
2019-04-27T15:16:23.964Z,99071.62
2019-04-27T15:18:57.069Z,99066.31
2019-04-27T15:21:25.959Z,99066.47
2019-04-27T15:23:54.678Z,99070.19
2019-04-27T15:26:24.099Z,99080.56
2019-04-27T15:28:55.043Z,99094.59
2019-04-27T15:31:30.612Z,99112.71
2019-04-27T15:34:04.131Z,99124.44
2019-04-27T15:36:34.432Z,99141.17
2019-04-27T15:39:26.975Z,99154.45
2019-04-27T15:41:56.339Z,99143.99
2019-04-27T15:44:27.846Z,99150.66
2019-04-27T15:46:58.024Z,99155.20
2019-04-27T15:49:26.743Z,99163.59
2019-04-27T15:51:56.242Z,99167.20
2019-04-27T15:54:29.020Z,99173.55
2019-04-27T15:56:55.636Z,99163.45
2019-04-27T15:59:30.879Z,99148.68
2019-04-27T16:01:58.985Z,99145.11
2019-04-27T16:04:27.713Z,99135.79
2019-04-27T16:06:58.266Z,99137.84
2019-04-27T16:09:28.314Z,99129.64
2019-04-27T16:12:03.603Z,99109.31
2019-04-27T16:14:28.937Z,99088.03
2019-04-27T16:16:58.832Z,99043.83
2019-04-27T16:19:28.703Z,99028.43
2019-04-27T16:21:59.125Z,99022.73
2019-04-27T16:24:29.010Z,99017.87
2019-04-27T16:26:59.121Z,99022.05
2019-04-27T16:29:31.474Z,99009.19
2019-04-27T16:32:02.741Z,98999.55
2019-04-27T16:34:32.970Z,98991.07
2019-04-27T16:37:00.788Z,99013.42
2019-04-27T16:39:29.503Z,98972.08
2019-04-27T16:41:58.709Z,99013.89
2019-04-27T16:44:27.690Z,98986.24
2019-04-27T16:46:58.160Z,98964.91
2019-04-27T16:49:28.899Z,98963.39
2019-04-27T16:51:59.069Z,98957.82
2019-04-27T16:54:28.304Z,99004.78
2019-04-27T16:57:03.297Z,99047.28
2019-04-27T16:59:42.651Z,99065.45
2019-04-27T17:01:58.315Z,99080.70
2019-04-27T17:04:27.037Z,99089.23
2019-04-27T17:06:55.929Z,99101.81
2019-04-27T17:09:24.794Z,99122.61
2019-04-27T17:11:53.618Z,99143.22
2019-04-27T17:14:39.404Z,99168.93
2019-04-27T17:17:25.715Z,99191.38
2019-04-27T17:19:58.027Z,99182.59
2019-04-27T17:22:28.705Z,99211.77
2019-04-27T17:24:58.110Z,99221.63
2019-04-27T17:27:31.873Z,99250.56
2019-04-27T17:30:01.743Z,99291.58
2019-04-27T17:32:33.802Z,99292.45
2019-04-27T17:35:05.686Z,99281.34
2019-04-27T17:37:33.852Z,99291.13
2019-04-27T17:40:02.869Z,99308.92
2019-04-27T17:42:31.857Z,99319.02
2019-04-27T17:45:02.262Z,99305.16
2019-04-27T17:47:30.978Z,99301.84
2019-04-27T17:49:59.836Z,99304.01
2019-04-27T17:52:28.553Z,99305.43
2019-04-27T17:54:58.927Z,99306.82
2019-04-27T17:57:30.172Z,99335.69
2019-04-27T18:00:03.470Z,99338.35
2019-04-27T18:02:33.866Z,99357.34
2019-04-27T18:05:02.955Z,99367.22
2019-04-27T18:07:34.905Z,99374.59
2019-04-27T18:10:02.123Z,99382.11
2019-04-27T18:12:31.078Z,99385.92
2019-04-27T18:14:59.801Z,99398.77
2019-04-27T18:17:29.632Z,99402.38
2019-04-27T18:20:00.639Z,99398.45
2019-04-27T18:22:32.260Z,99392.73
2019-04-27T18:25:09.553Z,99399.12
2019-04-27T18:27:49.835Z,99406.27
2019-04-27T18:30:20.589Z,99408.23
2019-04-27T18:32:49.306Z,99397.27
2019-04-27T18:35:19.973Z,99393.19
2019-04-27T18:37:48.636Z,99381.54
2019-04-27T18:40:18.210Z,99373.33
2019-04-27T18:42:47.159Z,99356.19
2019-04-27T18:45:18.265Z,99344.00
2019-04-27T18:47:48.164Z,99356.06
2019-04-27T18:50:25.395Z,99347.39
2019-04-27T18:52:55.687Z,99342.23
2019-04-27T18:55:24.403Z,99333.99
2019-04-27T18:57:54.489Z,99323.91
2019-04-27T19:00:23.484Z,99316.44
2019-04-27T19:02:52.211Z,99325.44
2019-04-27T19:05:20.970Z,99324.98
2019-04-27T19:07:49.713Z,99318.52
2019-04-27T19:10:19.196Z,99294.39
2019-04-27T19:12:48.476Z,99288.55
2019-04-27T19:15:18.340Z,99298.45
2019-04-27T19:17:48.909Z,99301.50
2019-04-27T19:20:18.665Z,99298.97
2019-04-27T19:22:49.013Z,99287.02
2019-04-27T19:25:19.530Z,99292.08
2019-04-27T19:28:09.118Z,99286.36
2019-04-27T19:30:45.814Z,99263.72
2019-04-27T19:33:14.566Z,99264.72
2019-04-27T19:35:43.291Z,99265.92
2019-04-27T19:38:12.023Z,99252.28
2019-04-27T19:40:40.886Z,99241.52
2019-04-27T19:43:10.319Z,99239.86
2019-04-27T19:45:39.257Z,99234.73
2019-04-27T19:48:10.403Z,99233.95
2019-04-27T19:50:39.233Z,99237.59
2019-04-27T19:53:09.721Z,99249.13
2019-04-27T19:55:40.424Z,99255.61
2019-04-27T19:58:09.278Z,99256.48
2019-04-27T20:00:39.841Z,99263.81
2019-04-27T20:03:11.113Z,99266.11
2019-04-27T20:05:39.930Z,99268.45
2019-04-27T20:08:10.224Z,99276.67
2019-04-27T20:10:39.038Z,99281.08
2019-04-27T20:13:07.762Z,99278.91
2019-04-27T20:15:36.479Z,99275.39
2019-04-27T20:18:05.401Z,99269.33
2019-04-27T20:20:34.130Z,99268.32
2019-04-27T20:23:02.861Z,99275.78
2019-04-27T20:25:31.746Z,99268.78
2019-04-27T20:28:00.966Z,99273.39
2019-04-27T20:30:31.534Z,99262.84
2019-04-27T20:33:00.960Z,99268.45
2019-04-27T20:35:29.760Z,99266.34
2019-04-27T20:37:58.488Z,99265.25
2019-04-27T20:40:27.440Z,99260.42
2019-04-27T20:42:56.162Z,99265.48
2019-04-27T20:45:24.880Z,99269.53
2019-04-27T20:47:53.831Z,99273.81
2019-04-27T20:50:22.561Z,99280.62
2019-04-27T20:52:52.855Z,99275.03
2019-04-27T20:55:21.648Z,99264.71
2019-04-27T20:58:01.041Z,99267.55
2019-04-27T21:00:22.091Z,99269.65
2019-04-27T21:02:52.484Z,99264.05
2019-04-27T21:05:22.775Z,99251.63
2019-04-27T21:07:53.070Z,99258.78
2019-04-27T21:10:22.015Z,99257.79
2019-04-27T21:12:51.838Z,99249.77
2019-04-27T21:15:21.417Z,99247.14
2019-04-27T21:17:51.200Z,99244.52
2019-04-27T21:20:21.911Z,99241.98
2019-04-27T21:22:51.505Z,99249.12
2019-04-27T21:25:22.088Z,99247.02
2019-04-27T21:27:51.329Z,99248.98
2019-04-27T21:30:21.325Z,99244.27
2019-04-27T21:32:50.846Z,99242.20
2019-04-27T21:35:21.126Z,99246.77
2019-04-27T21:37:51.199Z,99245.12
2019-04-27T21:40:21.449Z,99236.66
2019-04-27T21:42:51.120Z,99244.78
2019-04-27T21:45:21.741Z,99248.39
2019-04-27T21:47:51.886Z,99250.25
2019-04-27T21:50:23.299Z,99251.86
2019-04-27T21:53:02.567Z,99252.16
2019-04-27T21:55:33.043Z,99251.32
2019-04-27T21:58:01.771Z,99251.95
2019-04-27T22:00:42.517Z,99249.73
2019-04-27T22:03:11.590Z,99254.78
2019-04-27T22:05:41.779Z,99251.17
2019-04-27T22:08:11.909Z,99245.53
2019-04-27T22:10:40.796Z,99245.78
2019-04-27T22:13:09.515Z,99242.27
2019-04-27T22:15:38.399Z,99232.72
2019-04-27T22:18:07.319Z,99240.27
2019-04-27T22:20:36.046Z,99234.91
2019-04-27T22:23:06.389Z,99228.97
2019-04-27T22:25:36.677Z,99232.03
2019-04-27T22:28:05.502Z,99227.66
2019-04-27T22:30:35.090Z,99226.34
2019-04-27T22:33:03.820Z,99222.05
2019-04-27T22:35:32.550Z,99220.50
2019-04-27T22:38:02.020Z,99224.68
2019-04-27T22:40:41.941Z,99217.05
2019-04-27T22:43:28.501Z,99219.09
2019-04-27T22:45:58.132Z,99220.84
2019-04-27T22:48:26.852Z,99215.68
2019-04-27T22:50:56.588Z,99213.03
2019-04-27T22:53:25.340Z,99212.94
2019-04-27T22:56:11.134Z,99204.62
2019-04-27T22:59:00.581Z,99207.47
2019-04-27T23:01:29.744Z,99212.08
2019-04-27T23:04:01.905Z,99211.48
2019-04-27T23:06:30.487Z,99206.00
2019-04-27T23:09:01.667Z,99214.96
2019-04-27T23:11:31.345Z,99211.99
2019-04-27T23:14:01.047Z,99216.76
2019-04-27T23:16:31.499Z,99216.93
2019-04-27T23:19:01.830Z,99211.77
2019-04-27T23:21:31.251Z,99209.14
2019-04-27T23:24:01.846Z,99202.91
2019-04-27T23:26:32.144Z,99205.70
2019-04-27T23:29:11.013Z,99208.75
2019-04-27T23:31:40.695Z,99214.38
2019-04-27T23:34:09.493Z,99203.73
2019-04-27T23:36:38.176Z,99202.50
2019-04-27T23:39:08.036Z,99203.00
2019-04-27T23:41:36.721Z,99211.58
2019-04-27T23:44:05.414Z,99211.86
2019-04-27T23:46:34.339Z,99212.99
2019-04-27T23:49:03.016Z,99209.14
2019-04-27T23:51:39.252Z,99210.02
2019-04-27T23:54:07.948Z,99217.88
2019-04-27T23:56:36.626Z,99212.66
2019-04-27T23:59:05.528Z,99211.95
